Time;durP1;ratioP1;P1;durP2;ratioP2;P2;SDS_P1;SDS_P2;PMS_P1;PMS_P2;Temp;Humidity;BMP_temperature;BMP_pressure;BME280_temperature;BME280_humidity;BME280_pressure;Samples;Min_cycle;Max_cycle;Signal;HPM_P1;HPM_P2
2023/06/30 00:53:08;;;;;;;18.27;12.85;;;18.40;99.90;;;;;;5502600;22;20053;-94
2023/06/30 01:08:54;;;;;;;17.70;13.13;;;18.40;99.90;;;;;;5194908;22;20056;-96
2023/06/30 01:11:20;;;;;;;19.23;13.38;;;18.40;99.90;;;;;;5063801;28;20225;-96
2023/06/30 01:13:47;;;;;;;20.13;13.68;;;18.40;99.90;;;;;;5077151;28;20012;-95
2023/06/30 01:16:16;;;;;;;18.10;12.75;;;18.40;99.90;;;;;;5075208;28;20024;-96
2023/06/30 01:18:44;;;;;;;19.98;14.02;;;18.50;99.90;;;;;;5083492;28;20062;-95
2023/06/30 01:21:13;;;;;;;19.88;13.85;;;18.50;99.90;;;;;;5081440;28;20035;-96
2023/06/30 01:23:45;;;;;;;18.90;13.32;;;18.50;99.90;;;;;;5083041;28;20033;-95
2023/06/30 01:26:12;;;;;;;19.50;13.90;;;18.50;99.90;;;;;;5087327;28;20025;-96
2023/06/30 01:28:38;;;;;;;22.23;12.77;;;18.40;99.90;;;;;;5057517;28;20040;-94
2023/06/30 01:31:09;;;;;;;21.08;12.35;;;18.40;99.90;;;;;;5082216;28;20035;-96
2023/06/30 01:41:22;;;;;;;16.75;12.52;;;18.40;99.90;;;;;;5230407;22;20081;-96
2023/06/30 01:54:16;;;;;;;27.40;15.15;;;18.40;99.90;;;;;;5060740;28;20057;-94
2023/06/30 01:56:49;;;;;;;24.23;14.38;;;18.50;99.90;;;;;;5068639;28;20036;-95
2023/06/30 01:59:14;;;;;;;26.92;15.23;;;18.40;99.90;;;;;;5061325;28;20083;-94
2023/06/30 02:01:40;;;;;;;26.85;14.23;;;18.40;99.90;;;;;;5054376;28;20040;-95
2023/06/30 02:04:05;;;;;;;23.48;15.48;;;18.40;99.90;;;;;;5065771;28;20047;-96
2023/06/30 02:06:31;;;;;;;21.40;14.88;;;18.40;99.90;;;;;;5049985;28;20509;-94
2023/06/30 02:08:57;;;;;;;24.85;15.43;;;18.40;99.90;;;;;;5062148;28;20044;-96
2023/06/30 02:11:22;;;;;;;27.98;16.10;;;18.40;99.90;;;;;;5056040;28;20021;-95
2023/06/30 02:13:48;;;;;;;26.13;14.15;;;18.30;99.90;;;;;;5065293;28;20107;-94
2023/06/30 02:16:13;;;;;;;25.98;15.45;;;18.40;99.90;;;;;;5067867;28;20017;-94
2023/06/30 02:18:39;;;;;;;28.60;15.85;;;18.30;99.90;;;;;;5066904;28;20509;-95
2023/06/30 02:21:05;;;;;;;26.42;16.20;;;18.30;99.90;;;;;;5065659;28;20052;-94
2023/06/30 02:23:31;;;;;;;29.48;15.77;;;18.40;99.90;;;;;;5058449;28;20017;-95
2023/06/30 02:26:00;;;;;;;26.38;15.68;;;18.30;99.90;;;;;;5067332;28;20516;-95
2023/06/30 02:28:25;;;;;;;32.33;16.60;;;18.30;99.90;;;;;;5052676;28;20500;-95
2023/06/30 02:30:51;;;;;;;30.10;16.52;;;18.30;99.90;;;;;;5061428;28;20024;-95
2023/06/30 02:33:17;;;;;;;31.85;16.98;;;18.30;99.90;;;;;;5058831;28;20040;-95
2023/06/30 02:35:43;;;;;;;28.95;15.77;;;18.30;99.90;;;;;;5063519;28;20024;-95
2023/06/30 02:38:08;;;;;;;29.50;17.15;;;18.30;99.90;;;;;;5063880;28;20040;-94
2023/06/30 02:40:35;;;;;;;23.05;15.93;;;18.30;99.90;;;;;;5063998;28;20035;-95
2023/06/30 02:43:00;;;;;;;25.65;15.93;;;18.30;99.90;;;;;;5061874;28;20392;-95
2023/06/30 02:45:26;;;;;;;28.40;16.70;;;18.30;99.90;;;;;;5060447;28;20177;-96
2023/06/30 02:47:52;;;;;;;27.05;15.73;;;18.30;99.90;;;;;;5060298;28;20044;-94
2023/06/30 02:50:21;;;;;;;19.38;13.05;;;18.30;99.90;;;;;;5065477;28;20040;-93
2023/06/30 02:52:47;;;;;;;23.70;15.77;;;18.30;99.90;;;;;;5065331;28;20044;-94
2023/06/30 02:55:13;;;;;;;25.60;16.77;;;18.20;99.90;;;;;;5056512;28;20036;-94
2023/06/30 02:57:38;;;;;;;27.52;17.70;;;18.20;99.90;;;;;;5067873;28;20028;-92
2023/06/30 03:00:04;;;;;;;28.92;17.55;;;18.20;99.90;;;;;;5066506;28;20028;-93
2023/06/30 03:02:30;;;;;;;31.38;19.17;;;18.10;99.90;;;;;;5052788;28;20025;-93
2023/06/30 03:04:55;;;;;;;32.08;19.52;;;18.10;99.90;;;;;;5065774;28;20027;-93
2023/06/30 03:07:22;;;;;;;34.80;20.15;;;18.00;99.90;;;;;;5053365;28;20494;-94
2023/06/30 03:09:47;;;;;;;30.17;19.40;;;18.00;99.90;;;;;;5055093;28;20041;-93
2023/06/30 03:12:13;;;;;;;35.78;20.13;;;17.90;99.90;;;;;;5067083;28;20055;-93
2023/06/30 03:14:39;;;;;;;35.88;20.35;;;17.80;99.90;;;;;;5061621;28;20133;-92
2023/06/30 03:17:05;;;;;;;31.63;19.83;;;17.80;99.90;;;;;;5055948;28;20033;-92
2023/06/30 03:19:31;;;;;;;31.70;21.63;;;17.80;99.90;;;;;;5055249;28;20108;-94
2023/06/30 03:21:57;;;;;;;36.22;22.50;;;17.80;99.90;;;;;;5061543;28;20036;-93
2023/06/30 03:24:22;;;;;;;37.13;20.42;;;17.70;99.90;;;;;;5041532;28;20025;-92
2023/06/30 03:26:48;;;;;;;32.47;20.08;;;17.80;99.90;;;;;;5059648;28;20029;-92
2023/06/30 03:29:14;;;;;;;35.15;20.65;;;17.70;99.90;;;;;;5055139;28;20086;-94
2023/06/30 03:31:39;;;;;;;36.45;22.10;;;17.70;99.90;;;;;;5064326;28;20650;-94
2023/06/30 03:34:05;;;;;;;43.47;22.80;;;17.80;99.90;;;;;;5062414;28;20025;-93
2023/06/30 03:36:30;;;;;;;41.72;22.58;;;17.80;99.90;;;;;;5065903;28;20040;-93
2023/06/30 03:38:56;;;;;;;37.65;21.90;;;17.80;99.90;;;;;;5062880;28;20174;-92
2023/06/30 03:41:21;;;;;;;35.28;21.27;;;17.80;99.90;;;;;;5054982;28;20033;-92
2023/06/30 03:43:47;;;;;;;44.95;24.02;;;17.80;99.90;;;;;;5060205;28;20156;-92
2023/06/30 03:46:15;;;;;;;37.92;23.02;;;17.80;99.90;;;;;;5065962;28;20050;-92
2023/06/30 03:48:42;;;;;;;39.03;23.70;;;17.80;99.90;;;;;;5053694;28;20052;-92
2023/06/30 03:51:07;;;;;;;36.05;22.38;;;17.80;99.90;;;;;;5056686;28;20063;-92
2023/06/30 03:53:33;;;;;;;40.83;24.38;;;17.80;99.90;;;;;;5066509;28;20082;-92
2023/06/30 03:55:59;;;;;;;41.40;24.30;;;17.80;99.90;;;;;;5059466;28;20440;-92
2023/06/30 03:58:24;;;;;;;45.53;26.88;;;17.80;99.90;;;;;;5064992;28;20051;-92
2023/06/30 04:00:50;;;;;;;39.72;24.73;;;17.90;99.90;;;;;;5037705;28;20033;-92
2023/06/30 04:03:16;;;;;;;49.47;28.77;;;17.90;99.90;;;;;;5068121;28;20033;-92
2023/06/30 04:05:41;;;;;;;59.45;31.25;;;17.90;99.90;;;;;;5066123;28;20119;-91
2023/06/30 04:08:07;;;;;;;46.20;29.00;;;17.90;99.90;;;;;;5064844;28;20481;-91
2023/06/30 04:10:33;;;;;;;50.60;29.38;;;18.00;99.90;;;;;;5057888;28;20029;-91
2023/06/30 04:12:59;;;;;;;47.47;29.30;;;18.00;99.90;;;;;;5064189;28;20032;-91
2023/06/30 04:15:24;;;;;;;51.38;30.00;;;18.00;99.90;;;;;;5061167;28;20032;-91
2023/06/30 04:17:50;;;;;;;53.65;29.85;;;18.00;99.90;;;;;;5061573;28;20047;-90
2023/06/30 04:20:15;;;;;;;52.33;29.27;;;18.00;99.90;;;;;;5063138;28;20496;-91
2023/06/30 04:22:44;;;;;;;47.20;28.20;;;18.00;99.90;;;;;;5057651;28;20039;-92
2023/06/30 04:25:11;;;;;;;44.80;27.00;;;18.00;99.90;;;;;;5062324;28;20024;-91
2023/06/30 04:27:39;;;;;;;50.65;29.88;;;18.00;99.90;;;;;;5062310;28;20028;-92
2023/06/30 04:30:07;;;;;;;55.03;30.10;;;18.00;99.90;;;;;;5059437;28;20125;-90
2023/06/30 04:32:32;;;;;;;48.97;27.52;;;18.00;99.90;;;;;;5062191;28;20119;-91
2023/06/30 04:34:58;;;;;;;48.15;27.73;;;17.90;99.90;;;;;;5059336;28;20107;-90
2023/06/30 04:37:24;;;;;;;45.20;28.33;;;18.00;99.90;;;;;;5061352;28;20023;-91
2023/06/30 04:39:50;;;;;;;49.25;30.42;;;18.00;99.90;;;;;;5057867;28;20029;-91
2023/06/30 04:42:16;;;;;;;39.25;24.88;;;18.00;99.90;;;;;;5063416;28;20031;-91
2023/06/30 04:44:41;;;;;;;48.67;28.77;;;18.00;99.90;;;;;;5061527;28;20451;-91
2023/06/30 04:47:08;;;;;;;46.42;27.38;;;18.00;99.90;;;;;;5060066;28;20032;-92
2023/06/30 04:49:34;;;;;;;43.33;25.83;;;18.00;99.90;;;;;;5063346;28;20040;-92
2023/06/30 04:51:59;;;;;;;47.08;28.13;;;18.00;99.90;;;;;;5060250;28;20028;-93
2023/06/30 04:54:25;;;;;;;54.30;30.23;;;18.10;99.90;;;;;;5066540;28;20052;-92
2023/06/30 04:56:50;;;;;;;38.80;24.60;;;18.10;99.90;;;;;;5058334;28;20111;-93
2023/06/30 04:59:16;;;;;;;51.38;28.85;;;18.10;99.90;;;;;;5065652;28;20036;-92
2023/06/30 05:01:41;;;;;;;46.75;25.23;;;18.10;99.90;;;;;;5067399;28;20017;-92
2023/06/30 05:04:08;;;;;;;36.28;24.08;;;18.10;99.90;;;;;;5061393;28;20021;-92
2023/06/30 05:06:33;;;;;;;39.55;24.70;;;18.10;99.90;;;;;;5057022;28;20033;-92
2023/06/30 05:08:59;;;;;;;48.90;27.25;;;18.20;99.90;;;;;;5062762;28;20056;-93
2023/06/30 05:11:24;;;;;;;45.97;26.83;;;18.20;99.90;;;;;;5060957;28;20028;-92
2023/06/30 05:13:50;;;;;;;55.38;29.60;;;18.20;99.90;;;;;;5048693;28;20317;-91
2023/06/30 05:16:15;;;;;;;59.97;31.02;;;18.20;99.90;;;;;;5067329;28;20070;-91
2023/06/30 05:18:42;;;;;;;62.63;32.78;;;18.30;99.90;;;;;;5061183;28;20051;-91
2023/06/30 05:21:08;;;;;;;50.67;31.30;;;18.20;99.90;;;;;;5062421;28;20027;-93
2023/06/30 05:23:34;;;;;;;56.55;32.95;;;18.30;99.90;;;;;;5063429;28;20021;-93
2023/06/30 05:25:59;;;;;;;46.03;27.02;;;18.30;99.90;;;;;;5056500;28;20504;-92
2023/06/30 05:28:25;;;;;;;45.47;28.55;;;18.30;99.90;;;;;;5056723;28;20033;-92
2023/06/30 05:30:51;;;;;;;59.38;33.50;;;18.20;99.90;;;;;;5069041;28;20025;-91
2023/06/30 05:33:16;;;;;;;66.30;33.90;;;18.30;99.90;;;;;;5068069;28;20024;-92
2023/06/30 05:35:41;;;;;;;60.95;33.25;;;18.30;99.90;;;;;;5045733;28;20481;-92
2023/06/30 05:38:07;;;;;;;64.53;35.22;;;18.30;99.90;;;;;;5067548;28;20063;-91
2023/06/30 05:40:32;;;;;;;61.58;34.83;;;18.30;99.90;;;;;;5060945;28;20112;-91
2023/06/30 05:42:58;;;;;;;67.70;36.97;;;18.30;99.90;;;;;;5073086;28;20063;-93
2023/06/30 05:45:25;;;;;;;54.40;31.10;;;18.30;99.90;;;;;;5065659;28;20132;-93
2023/06/30 05:47:50;;;;;;;65.80;34.95;;;18.20;99.90;;;;;;5071807;28;20033;-91
2023/06/30 05:50:17;;;;;;;67.78;35.83;;;18.20;99.90;;;;;;5070468;28;20033;-91
2023/06/30 05:52:43;;;;;;;61.75;34.90;;;18.30;99.90;;;;;;5062583;28;20143;-95
2023/06/30 05:55:08;;;;;;;53.47;30.95;;;18.30;99.90;;;;;;5069976;28;20377;-94
2023/06/30 05:57:34;;;;;;;62.40;38.17;;;18.30;99.90;;;;;;5064530;28;20465;-94
2023/06/30 05:59:59;;;;;;;73.00;40.30;;;18.30;99.90;;;;;;5045469;28;20506;-93
2023/06/30 06:02:26;;;;;;;79.70;43.88;;;18.30;99.90;;;;;;5044866;28;20020;-94
2023/06/30 06:04:51;;;;;;;78.60;40.78;;;18.30;99.90;;;;;;5068192;28;20020;-95
2023/06/30 06:07:17;;;;;;;80.97;42.13;;;18.30;99.90;;;;;;5064801;28;20044;-93
2023/06/30 06:09:42;;;;;;;84.50;43.33;;;18.30;99.90;;;;;;5058681;28;20044;-92
2023/06/30 06:12:08;;;;;;;85.07;41.42;;;18.30;99.90;;;;;;5063791;28;20031;-92
2023/06/30 06:14:34;;;;;;;82.72;42.80;;;18.30;99.90;;;;;;5067489;28;20060;-91
2023/06/30 06:16:59;;;;;;;85.82;43.85;;;18.20;99.90;;;;;;5043974;28;20032;-95
2023/06/30 06:19:25;;;;;;;89.60;45.35;;;18.30;99.90;;;;;;5064179;28;20031;-93
2023/06/30 06:21:51;;;;;;;86.07;43.20;;;18.30;99.90;;;;;;5067180;28;20036;-90
2023/06/30 06:24:17;;;;;;;92.10;44.35;;;18.30;99.90;;;;;;5059881;28;20393;-92
2023/06/30 06:26:42;;;;;;;110.90;51.10;;;18.40;99.90;;;;;;5064393;28;20085;-93
2023/06/30 06:29:08;;;;;;;110.05;54.08;;;18.30;99.90;;;;;;5066650;28;20044;-94
2023/06/30 06:31:33;;;;;;;101.22;52.03;;;18.40;99.90;;;;;;5058979;28;20020;-93
2023/06/30 06:33:59;;;;;;;109.57;51.95;;;18.40;99.90;;;;;;5061219;28;20049;-90
2023/06/30 06:36:24;;;;;;;106.88;52.50;;;18.50;99.90;;;;;;5067190;28;20047;-92
2023/06/30 06:38:50;;;;;;;94.78;49.45;;;18.50;99.90;;;;;;5045824;28;20317;-93
2023/06/30 06:41:15;;;;;;;86.65;43.58;;;18.50;99.90;;;;;;5046251;28;20017;-93
2023/06/30 06:43:42;;;;;;;104.50;54.55;;;18.50;99.90;;;;;;5068303;28;20034;-95
2023/06/30 06:46:08;;;;;;;109.13;55.38;;;18.40;99.90;;;;;;5066055;28;20016;-90
2023/06/30 06:48:33;;;;;;;106.68;54.05;;;18.50;99.90;;;;;;5069335;28;20028;-93
2023/06/30 06:51:01;;;;;;;100.22;52.58;;;18.50;99.90;;;;;;5065139;28;20066;-92
2023/06/30 06:53:29;;;;;;;116.35;57.92;;;18.40;99.90;;;;;;5064990;28;20045;-89
2023/06/30 06:55:55;;;;;;;108.63;58.03;;;18.50;99.90;;;;;;5066087;28;20099;-95
2023/06/30 06:58:22;;;;;;;100.95;51.45;;;18.40;99.90;;;;;;5061123;28;20035;-93
2023/06/30 07:00:50;;;;;;;116.97;58.58;;;18.40;99.90;;;;;;5067077;28;20082;-91
2023/06/30 07:03:17;;;;;;;107.55;57.55;;;18.40;99.90;;;;;;5064036;28;20017;-92
2023/06/30 07:05:46;;;;;;;119.68;60.15;;;18.40;99.90;;;;;;5065377;28;20046;-94
2023/06/30 07:08:12;;;;;;;113.57;57.80;;;18.40;99.90;;;;;;5067241;28;20056;-94
2023/06/30 07:10:38;;;;;;;120.68;59.15;;;18.40;99.90;;;;;;5068294;28;20029;-91
2023/06/30 07:13:04;;;;;;;125.05;59.53;;;18.40;99.90;;;;;;5062231;28;20025;-91
2023/06/30 07:15:30;;;;;;;120.93;57.30;;;18.40;99.90;;;;;;5061567;28;20036;-90
2023/06/30 07:17:56;;;;;;;124.65;62.10;;;18.40;99.90;;;;;;5063650;28;20741;-91
2023/06/30 07:20:23;;;;;;;126.55;62.22;;;18.40;99.90;;;;;;5063519;28;20029;-94
2023/06/30 07:22:48;;;;;;;108.57;55.53;;;18.40;99.90;;;;;;5047920;28;20029;-90
2023/06/30 07:25:14;;;;;;;116.38;57.35;;;18.30;99.90;;;;;;5067686;28;20024;-89
2023/06/30 07:27:39;;;;;;;116.03;57.90;;;18.30;99.90;;;;;;5067634;28;20036;-89
2023/06/30 07:30:06;;;;;;;124.82;60.17;;;18.30;99.90;;;;;;5064334;28;20315;-91
2023/06/30 07:32:34;;;;;;;108.13;53.95;;;18.20;99.90;;;;;;5064208;28;20033;-91
2023/06/30 07:35:02;;;;;;;120.78;57.13;;;18.20;99.90;;;;;;5060898;28;20503;-89
2023/06/30 07:37:28;;;;;;;100.20;52.75;;;18.20;99.90;;;;;;5066300;28;20040;-87
2023/06/30 07:39:53;;;;;;;105.10;54.47;;;18.10;99.90;;;;;;5062457;28;20032;-89
2023/06/30 07:42:19;;;;;;;112.80;55.92;;;18.10;99.90;;;;;;5069411;28;20699;-93
2023/06/30 07:44:44;;;;;;;109.80;54.78;;;18.10;99.90;;;;;;5057034;28;20381;-94
2023/06/30 07:47:10;;;;;;;107.38;55.60;;;18.00;99.90;;;;;;5042556;28;20351;-94
2023/06/30 07:49:36;;;;;;;108.90;55.80;;;18.00;99.90;;;;;;5064379;28;20044;-91
2023/06/30 07:52:01;;;;;;;103.35;53.05;;;18.00;99.90;;;;;;5063272;28;20499;-94
2023/06/30 07:54:27;;;;;;;103.32;52.72;;;17.90;99.90;;;;;;5045550;28;20029;-92
2023/06/30 07:56:52;;;;;;;115.32;57.03;;;17.80;99.90;;;;;;5066044;28;20123;-93
2023/06/30 07:59:18;;;;;;;109.70;53.78;;;17.80;99.90;;;;;;5065718;28;20021;-91
2023/06/30 08:01:43;;;;;;;109.70;56.00;;;17.80;99.90;;;;;;5063595;28;20032;-91
2023/06/30 08:04:09;;;;;;;105.93;53.80;;;17.80;99.90;;;;;;5066593;28;20020;-92
2023/06/30 08:06:34;;;;;;;106.03;53.70;;;17.80;99.90;;;;;;5060319;28;20331;-94
2023/06/30 08:09:00;;;;;;;112.38;54.00;;;17.80;99.90;;;;;;5060166;28;20146;-93
2023/06/30 08:11:25;;;;;;;119.47;57.95;;;17.80;99.90;;;;;;5053537;28;20031;-93
2023/06/30 08:13:52;;;;;;;98.82;50.72;;;17.70;99.90;;;;;;5065714;28;20032;-92
2023/06/30 08:16:26;;;;;;;109.82;55.50;;;17.70;99.90;;;;;;5065465;28;20025;-90
2023/06/30 08:18:51;;;;;;;96.05;49.50;;;17.70;99.90;;;;;;5058508;28;20021;-90
2023/06/30 08:21:17;;;;;;;110.63;54.33;;;17.60;99.90;;;;;;5058757;28;20100;-89
2023/06/30 08:23:43;;;;;;;112.90;54.88;;;17.60;99.90;;;;;;5064492;28;20031;-88
2023/06/30 08:26:08;;;;;;;116.63;57.70;;;17.60;99.90;;;;;;5061706;28;20178;-89
2023/06/30 08:28:34;;;;;;;121.70;56.88;;;17.70;99.90;;;;;;5063700;28;20058;-91
2023/06/30 08:30:59;;;;;;;106.05;53.17;;;17.60;99.90;;;;;;5067082;28;20066;-91
2023/06/30 08:33:27;;;;;;;72.72;39.42;;;17.60;99.90;;;;;;5066752;28;20051;-90
2023/06/30 08:35:52;;;;;;;68.25;31.75;;;17.60;99.90;;;;;;5062546;28;20698;-89
2023/06/30 08:38:18;;;;;;;29.35;16.23;;;17.60;99.90;;;;;;5062030;28;20073;-90
2023/06/30 08:40:43;;;;;;;18.17;8.65;;;17.50;99.90;;;;;;5056570;28;20021;-90
2023/06/30 08:43:13;;;;;;;5.88;3.72;;;17.40;99.90;;;;;;5060267;28;20028;-90
2023/06/30 08:45:48;;;;;;;7.18;4.68;;;17.30;99.90;;;;;;5053979;28;20107;-87
2023/06/30 08:48:19;;;;;;;4.63;3.83;;;17.20;99.90;;;;;;5058279;28;20021;-88
2023/06/30 08:50:45;;;;;;;6.18;3.28;;;17.20;99.90;;;;;;5064857;28;20045;-88
2023/06/30 08:53:11;;;;;;;5.55;2.83;;;17.10;99.90;;;;;;5064745;28;20052;-88
2023/06/30 08:55:37;;;;;;;6.85;2.63;;;17.10;99.90;;;;;;5062878;28;20040;-88
2023/06/30 08:58:03;;;;;;;2.78;1.73;;;17.10;99.90;;;;;;5062245;28;20024;-89
2023/06/30 09:00:29;;;;;;;3.30;1.88;;;17.10;99.90;;;;;;5063791;28;20098;-88
2023/06/30 09:02:56;;;;;;;3.60;1.40;;;17.10;99.90;;;;;;5036107;28;20029;-88
2023/06/30 09:05:24;;;;;;;2.28;1.67;;;17.10;99.90;;;;;;5063339;28;20036;-87
2023/06/30 09:07:55;;;;;;;5.18;1.67;;;17.00;99.90;;;;;;5052339;28;20081;-87
2023/06/30 09:10:33;;;;;;;3.70;1.75;;;17.10;99.90;;;;;;5066780;28;20036;-88
2023/06/30 09:13:01;;;;;;;1.58;1.42;;;17.00;99.90;;;;;;5058802;28;20048;-88
2023/06/30 09:15:28;;;;;;;3.08;1.80;;;17.00;99.90;;;;;;5062541;28;20095;-89
2023/06/30 09:17:56;;;;;;;2.13;1.92;;;17.10;99.90;;;;;;5054265;28;20044;-89
2023/06/30 09:20:22;;;;;;;1.60;1.50;;;17.00;99.90;;;;;;5059691;28;20382;-88
2023/06/30 09:22:48;;;;;;;2.13;1.90;;;17.00;99.90;;;;;;5055823;28;20032;-89
2023/06/30 09:25:25;;;;;;;2.30;2.10;;;17.00;99.90;;;;;;5061757;28;20048;-90
2023/06/30 09:27:51;;;;;;;3.83;2.30;;;17.00;99.90;;;;;;5059403;28;20017;-90
2023/06/30 09:30:17;;;;;;;2.67;2.47;;;17.00;99.90;;;;;;5059150;28;20104;-90
2023/06/30 09:32:43;;;;;;;2.95;1.92;;;17.00;99.90;;;;;;5064015;28;20103;-90
2023/06/30 09:35:12;;;;;;;3.67;2.60;;;17.00;99.90;;;;;;5056561;28;20086;-90
2023/06/30 09:37:42;;;;;;;5.88;3.50;;;17.00;99.90;;;;;;5044787;28;20059;-91
2023/06/30 09:40:27;;;;;;;4.05;3.00;;;17.00;99.90;;;;;;5060065;28;20033;-91
2023/06/30 09:42:53;;;;;;;4.07;3.63;;;17.00;99.90;;;;;;5060790;28;20471;-91
2023/06/30 09:45:19;;;;;;;7.95;4.50;;;17.00;99.90;;;;;;5060843;28;20029;-92
2023/06/30 09:47:52;;;;;;;6.55;5.85;;;17.00;99.90;;;;;;5059926;28;20029;-91
2023/06/30 09:50:29;;;;;;;7.82;6.53;;;17.00;99.90;;;;;;5064650;28;20477;-90
2023/06/30 09:52:55;;;;;;;7.07;6.38;;;17.00;99.90;;;;;;5062963;28;20071;-93
2023/06/30 09:55:21;;;;;;;8.10;7.28;;;17.10;99.90;;;;;;5067114;28;20373;-93
2023/06/30 09:57:55;;;;;;;8.90;8.10;;;17.10;99.90;;;;;;5059950;28;20482;-89
2023/06/30 10:00:21;;;;;;;9.95;8.65;;;17.10;99.90;;;;;;5065934;28;20488;-94
2023/06/30 10:03:04;;;;;;;10.50;8.18;;;17.10;99.90;;;;;;5060402;28;20017;-93
2023/06/30 10:05:30;;;;;;;11.60;8.90;;;17.20;99.90;;;;;;5064004;28;20051;-93
2023/06/30 10:08:00;;;;;;;8.02;7.00;;;17.10;99.90;;;;;;5064657;28;20029;-92
2023/06/30 10:10:26;;;;;;;11.55;9.10;;;17.10;99.90;;;;;;5073755;28;20032;-94
2023/06/30 10:12:58;;;;;;;18.10;15.13;;;17.10;99.90;;;;;;5063187;28;20059;-93
2023/06/30 10:15:25;;;;;;;21.92;18.13;;;17.00;99.90;;;;;;5069390;28;20108;-91
2023/06/30 10:17:51;;;;;;;23.85;19.02;;;17.00;99.90;;;;;;5056548;28;20029;-91
2023/06/30 10:20:18;;;;;;;27.70;21.85;;;16.90;99.90;;;;;;5070045;28;20065;-94
2023/06/30 10:22:44;;;;;;;27.98;19.88;;;16.80;99.90;;;;;;5062186;28;20066;-92
2023/06/30 10:25:11;;;;;;;24.60;19.98;;;16.80;99.90;;;;;;5057811;28;20115;-95
2023/06/30 10:27:37;;;;;;;25.77;20.00;;;16.70;99.90;;;;;;5065758;28;20277;-93
2023/06/30 10:30:03;;;;;;;24.05;16.23;;;16.70;99.90;;;;;;5060657;28;20037;-93
2023/06/30 10:32:29;;;;;;;15.07;12.88;;;16.60;99.90;;;;;;5063337;28;20035;-92
2023/06/30 10:34:55;;;;;;;19.17;13.73;;;16.50;99.90;;;;;;5054473;28;20024;-93
2023/06/30 10:37:23;;;;;;;24.00;14.63;;;16.40;99.90;;;;;;5068004;28;20418;-94
2023/06/30 10:39:48;;;;;;;23.13;14.38;;;16.30;99.90;;;;;;5059219;28;20486;-93
2023/06/30 10:42:16;;;;;;;21.15;13.80;;;16.20;99.90;;;;;;5066717;28;20036;-94
2023/06/30 10:44:47;;;;;;;15.85;12.93;;;16.20;99.90;;;;;;5062105;28;20028;-92
2023/06/30 10:47:14;;;;;;;20.02;14.30;;;16.20;99.90;;;;;;5064171;28;20028;-93
2023/06/30 10:49:41;;;;;;;15.40;13.82;;;16.10;99.90;;;;;;5069006;28;20481;-93
2023/06/30 10:52:11;;;;;;;18.13;13.32;;;16.10;99.90;;;;;;5062430;28;20017;-94
2023/06/30 10:54:48;;;;;;;16.10;12.23;;;16.20;99.90;;;;;;5060331;28;20032;-92
2023/06/30 10:57:18;;;;;;;14.38;12.27;;;16.10;99.90;;;;;;5062650;28;20036;-94
2023/06/30 10:59:48;;;;;;;17.10;13.70;;;16.20;99.90;;;;;;5061158;28;20029;-93
2023/06/30 11:02:22;;;;;;;13.52;11.65;;;16.10;99.90;;;;;;5056509;28;20109;-93
2023/06/30 11:04:49;;;;;;;19.35;13.48;;;16.10;99.90;;;;;;5060303;28;20037;-90
2023/06/30 11:07:28;;;;;;;15.13;13.52;;;16.10;99.90;;;;;;5068118;28;20048;-93
2023/06/30 11:09:53;;;;;;;23.23;14.80;;;16.10;99.90;;;;;;5064280;28;20683;-94
2023/06/30 11:12:43;;;;;;;17.40;14.43;;;16.10;99.90;;;;;;5063554;28;20439;-92
2023/06/30 11:15:44;;;;;;;18.42;15.77;;;16.10;99.90;;;;;;5061574;28;20102;-94
2023/06/30 11:18:23;;;;;;;17.77;15.75;;;16.00;99.90;;;;;;5065649;28;20036;-93
2023/06/30 11:21:01;;;;;;;20.58;16.13;;;16.00;99.90;;;;;;5056646;28;20052;-94
2023/06/30 11:23:28;;;;;;;19.08;16.95;;;16.00;99.90;;;;;;5046937;28;20025;-93
2023/06/30 11:25:58;;;;;;;22.23;18.25;;;16.00;99.90;;;;;;5061325;28;20127;-93
2023/06/30 11:28:25;;;;;;;20.50;16.67;;;16.00;99.90;;;;;;5059968;28;20386;-92
2023/06/30 11:30:52;;;;;;;16.92;15.18;;;16.00;99.90;;;;;;5059799;28;20083;-92
2023/06/30 11:33:18;;;;;;;19.52;14.98;;;16.00;99.90;;;;;;5061556;28;20029;-92
2023/06/30 11:35:49;;;;;;;20.67;14.13;;;16.00;99.90;;;;;;5059479;28;20397;-93
2023/06/30 11:38:15;;;;;;;13.48;12.07;;;16.00;99.90;;;;;;5059303;28;20056;-94
2023/06/30 11:40:50;;;;;;;17.98;13.25;;;16.00;99.90;;;;;;5063875;28;20059;-93
2023/06/30 11:43:16;;;;;;;15.95;11.75;;;16.00;99.90;;;;;;5055797;28;20397;-93
2023/06/30 11:45:43;;;;;;;11.15;9.95;;;16.00;99.90;;;;;;5061119;28;20237;-94
2023/06/30 11:48:11;;;;;;;21.33;11.05;;;16.00;99.90;;;;;;5061292;28;20052;-93
2023/06/30 11:50:37;;;;;;;12.30;11.05;;;16.10;99.90;;;;;;5059084;28;20020;-93
2023/06/30 11:53:03;;;;;;;15.85;11.75;;;16.10;99.90;;;;;;5071563;28;20158;-94
2023/06/30 11:55:28;;;;;;;14.23;12.10;;;16.10;99.90;;;;;;5059766;28;20024;-93
2023/06/30 11:57:54;;;;;;;11.85;10.65;;;16.10;99.90;;;;;;5063524;28;20024;-93
2023/06/30 12:00:22;;;;;;;15.77;13.57;;;16.00;99.90;;;;;;5065717;28;20086;-94
2023/06/30 12:02:50;;;;;;;18.90;13.15;;;16.10;99.90;;;;;;5059532;28;20126;-93
2023/06/30 12:05:17;;;;;;;16.00;12.60;;;16.10;99.90;;;;;;5060794;28;20035;-93
2023/06/30 12:07:46;;;;;;;17.60;15.15;;;16.10;99.90;;;;;;5062391;28;20158;-94
2023/06/30 12:10:13;;;;;;;17.58;14.35;;;16.20;99.90;;;;;;5058597;28;20040;-92
2023/06/30 12:12:39;;;;;;;18.08;15.95;;;16.20;99.90;;;;;;5065502;28;20104;-94
2023/06/30 12:15:10;;;;;;;21.60;16.88;;;16.20;99.90;;;;;;5046054;28;20151;-93
2023/06/30 12:17:39;;;;;;;21.83;16.23;;;16.20;99.90;;;;;;5061692;28;20028;-90
2023/06/30 12:20:06;;;;;;;19.00;15.57;;;16.20;99.90;;;;;;5061732;28;20369;-95
2023/06/30 12:22:35;;;;;;;20.48;14.23;;;16.10;99.90;;;;;;5062353;28;20608;-93
2023/06/30 12:25:03;;;;;;;19.10;13.27;;;16.10;99.90;;;;;;5066293;28;20489;-93
2023/06/30 12:27:31;;;;;;;16.95;12.10;;;16.10;99.90;;;;;;5065752;28;20033;-92
2023/06/30 12:29:56;;;;;;;14.65;12.20;;;16.10;99.90;;;;;;5059805;28;20393;-94
2023/06/30 12:32:27;;;;;;;18.27;11.57;;;16.10;99.90;;;;;;5057317;28;20037;-94
2023/06/30 12:35:03;;;;;;;15.82;11.98;;;16.10;99.90;;;;;;5055796;28;20455;-93
2023/06/30 12:37:30;;;;;;;;;;;16.10;99.90;;;;;;5061512;28;20025;-94
2023/06/30 12:39:58;;;;;;;15.10;11.93;;;16.10;99.90;;;;;;5063033;28;19912;-93
2023/06/30 12:42:27;;;;;;;21.42;13.07;;;16.10;99.90;;;;;;5065643;28;20021;-93
2023/06/30 12:44:53;;;;;;;18.75;12.45;;;16.10;99.90;;;;;;5060337;28;20321;-92
2023/06/30 12:47:18;;;;;;;21.73;12.98;;;16.10;99.90;;;;;;5061276;28;20036;-89
2023/06/30 12:49:44;;;;;;;14.20;11.85;;;16.20;99.90;;;;;;5055941;28;20452;-93
2023/06/30 12:52:09;;;;;;;16.92;11.68;;;16.20;99.90;;;;;;5063724;28;20020;-92
2023/06/30 12:54:35;;;;;;;16.05;11.25;;;16.10;99.90;;;;;;5064830;28;20032;-93
2023/06/30 12:57:01;;;;;;;18.65;14.13;;;16.10;99.90;;;;;;5065190;28;20068;-95
2023/06/30 12:59:27;;;;;;;19.15;13.73;;;16.10;99.90;;;;;;5063098;28;20025;-91
2023/06/30 13:01:52;;;;;;;18.92;14.02;;;16.10;99.90;;;;;;5060339;28;20067;-92
2023/06/30 13:04:18;;;;;;;20.70;14.50;;;16.20;99.90;;;;;;5054933;28;20436;-93
2023/06/30 13:06:44;;;;;;;19.13;13.70;;;16.20;99.90;;;;;;5060923;28;20056;-93
2023/06/30 13:09:09;;;;;;;18.75;15.00;;;16.20;99.90;;;;;;5064062;28;20033;-93
2023/06/30 13:11:35;;;;;;;24.30;17.33;;;16.30;99.90;;;;;;5061059;28;20031;-93
2023/06/30 13:14:01;;;;;;;22.98;17.27;;;16.30;99.90;;;;;;5062238;28;20028;-94
2023/06/30 13:16:26;;;;;;;24.05;16.30;;;16.30;99.90;;;;;;5038325;28;20034;-94
2023/06/30 13:18:52;;;;;;;21.85;18.10;;;16.30;99.90;;;;;;5062834;28;20553;-95
2023/06/30 13:21:18;;;;;;;22.30;18.05;;;16.40;99.90;;;;;;5061929;28;20083;-95
2023/06/30 13:23:44;;;;;;;24.83;16.23;;;16.40;99.90;;;;;;5059819;28;20111;-93
2023/06/30 13:26:09;;;;;;;22.95;17.50;;;16.50;99.90;;;;;;5068443;28;20024;-96
2023/06/30 13:28:35;;;;;;;32.63;19.23;;;16.50;99.90;;;;;;5064495;28;20044;-94
2023/06/30 13:31:06;;;;;;;21.58;18.38;;;16.50;99.90;;;;;;5067159;28;20115;-94
2023/06/30 13:33:33;;;;;;;24.30;17.92;;;16.50;99.90;;;;;;5060983;28;20183;-95
2023/06/30 13:35:59;;;;;;;26.58;18.67;;;16.50;99.90;;;;;;5063118;28;20147;-95
2023/06/30 13:38:24;;;;;;;35.35;18.17;;;16.50;99.90;;;;;;5067783;28;20465;-96
2023/06/30 13:40:50;;;;;;;24.38;18.05;;;16.60;99.90;;;;;;5053752;28;20029;-94
2023/06/30 13:43:18;;;;;;;25.50;16.77;;;16.60;99.90;;;;;;5065858;28;20016;-88
2023/06/30 13:45:43;;;;;;;18.08;14.95;;;16.60;99.90;;;;;;5046032;28;20047;-94
2023/06/30 13:48:09;;;;;;;25.08;16.48;;;16.60;99.90;;;;;;5065263;28;20029;-93
2023/06/30 13:50:34;;;;;;;19.73;15.82;;;16.60;99.90;;;;;;5065877;28;20020;-92